sensor_id;sensor_type;location;lat;lon;timestamp;P1;durP1;ratioP1;P2;durP2;ratioP2
18019;SDS011;9135;48.362;10.878;2023-05-29T00:01:20;4.95;;;3.33;;
18019;SDS011;9135;48.362;10.878;2023-05-29T00:03:49;5.55;;;2.83;;
18019;SDS011;9135;48.362;10.878;2023-05-29T00:06:15;3.65;;;3.25;;
18019;SDS011;9135;48.362;10.878;2023-05-29T00:08:41;5.40;;;2.78;;
18019;SDS011;9135;48.362;10.878;2023-05-29T00:11:07;2.78;;;2.13;;
18019;SDS011;9135;48.362;10.878;2023-05-29T00:13:33;5.78;;;3.85;;
18019;SDS011;9135;48.362;10.878;2023-05-29T00:15:59;2.87;;;2.63;;
18019;SDS011;9135;48.362;10.878;2023-05-29T00:18:26;6.55;;;3.67;;
18019;SDS011;9135;48.362;10.878;2023-05-29T00:20:52;7.97;;;2.90;;
18019;SDS011;9135;48.362;10.878;2023-05-29T00:23:18;3.22;;;2.30;;
18019;SDS011;9135;48.362;10.878;2023-05-29T00:25:44;5.75;;;3.30;;
18019;SDS011;9135;48.362;10.878;2023-05-29T00:28:10;5.35;;;3.45;;
18019;SDS011;9135;48.362;10.878;2023-05-29T00:30:37;5.38;;;2.90;;
18019;SDS011;9135;48.362;10.878;2023-05-29T00:33:03;5.43;;;3.45;;
18019;SDS011;9135;48.362;10.878;2023-05-29T00:35:30;3.67;;;2.67;;
18019;SDS011;9135;48.362;10.878;2023-05-29T00:37:56;6.72;;;3.20;;
18019;SDS011;9135;48.362;10.878;2023-05-29T00:40:23;5.05;;;2.55;;
18019;SDS011;9135;48.362;10.878;2023-05-29T00:42:49;9.50;;;3.55;;
18019;SDS011;9135;48.362;10.878;2023-05-29T00:45:15;9.52;;;2.97;;
18019;SDS011;9135;48.362;10.878;2023-05-29T00:47:41;6.28;;;2.85;;
18019;SDS011;9135;48.362;10.878;2023-05-29T00:50:08;4.88;;;3.63;;
18019;SDS011;9135;48.362;10.878;2023-05-29T00:52:35;3.63;;;3.35;;
18019;SDS011;9135;48.362;10.878;2023-05-29T00:55:02;3.83;;;2.83;;
18019;SDS011;9135;48.362;10.878;2023-05-29T00:57:29;4.47;;;3.92;;
18019;SDS011;9135;48.362;10.878;2023-05-29T00:59:55;4.32;;;2.40;;
18019;SDS011;9135;48.362;10.878;2023-05-29T01:02:21;2.47;;;2.33;;
18019;SDS011;9135;48.362;10.878;2023-05-29T01:04:48;3.03;;;2.83;;
18019;SDS011;9135;48.362;10.878;2023-05-29T01:07:14;4.75;;;3.13;;
18019;SDS011;9135;48.362;10.878;2023-05-29T01:09:40;4.60;;;3.00;;
18019;SDS011;9135;48.362;10.878;2023-05-29T01:17:42;3.28;;;2.70;;
18019;SDS011;9135;48.362;10.878;2023-05-29T01:25:11;3.40;;;2.90;;
18019;SDS011;9135;48.362;10.878;2023-05-29T01:27:40;7.57;;;2.90;;
18019;SDS011;9135;48.362;10.878;2023-05-29T01:30:07;4.60;;;3.80;;
18019;SDS011;9135;48.362;10.878;2023-05-29T01:32:34;4.78;;;2.53;;
18019;SDS011;9135;48.362;10.878;2023-05-29T01:35:00;2.40;;;2.20;;
18019;SDS011;9135;48.362;10.878;2023-05-29T01:37:26;3.20;;;2.17;;
18019;SDS011;9135;48.362;10.878;2023-05-29T01:39:53;4.50;;;4.03;;
18019;SDS011;9135;48.362;10.878;2023-05-29T01:42:19;4.20;;;2.47;;
18019;SDS011;9135;48.362;10.878;2023-05-29T01:44:45;2.83;;;2.53;;
18019;SDS011;9135;48.362;10.878;2023-05-29T01:47:12;4.13;;;2.22;;
18019;SDS011;9135;48.362;10.878;2023-05-29T01:49:38;5.63;;;3.17;;
18019;SDS011;9135;48.362;10.878;2023-05-29T01:52:05;3.10;;;2.43;;
18019;SDS011;9135;48.362;10.878;2023-05-29T01:54:31;5.33;;;3.07;;
18019;SDS011;9135;48.362;10.878;2023-05-29T01:56:58;7.20;;;2.70;;
18019;SDS011;9135;48.362;10.878;2023-05-29T01:59:24;3.07;;;2.87;;
18019;SDS011;9135;48.362;10.878;2023-05-29T02:01:51;4.63;;;2.33;;
18019;SDS011;9135;48.362;10.878;2023-05-29T02:04:17;4.00;;;2.63;;
18019;SDS011;9135;48.362;10.878;2023-05-29T02:06:43;5.13;;;3.53;;
18019;SDS011;9135;48.362;10.878;2023-05-29T02:09:09;4.10;;;2.67;;
18019;SDS011;9135;48.362;10.878;2023-05-29T02:11:35;13.13;;;3.60;;
18019;SDS011;9135;48.362;10.878;2023-05-29T02:14:01;3.43;;;2.50;;
18019;SDS011;9135;48.362;10.878;2023-05-29T02:16:28;3.13;;;2.60;;
18019;SDS011;9135;48.362;10.878;2023-05-29T02:18:58;4.67;;;3.47;;
18019;SDS011;9135;48.362;10.878;2023-05-29T02:21:24;5.15;;;3.00;;
18019;SDS011;9135;48.362;10.878;2023-05-29T02:23:50;5.90;;;2.30;;
18019;SDS011;9135;48.362;10.878;2023-05-29T02:26:16;2.50;;;2.30;;
18019;SDS011;9135;48.362;10.878;2023-05-29T02:28:42;4.53;;;2.60;;
18019;SDS011;9135;48.362;10.878;2023-05-29T02:31:08;4.30;;;2.73;;
18019;SDS011;9135;48.362;10.878;2023-05-29T02:33:34;3.60;;;3.30;;
18019;SDS011;9135;48.362;10.878;2023-05-29T02:36:00;7.07;;;3.03;;
18019;SDS011;9135;48.362;10.878;2023-05-29T02:38:26;3.20;;;2.20;;
18019;SDS011;9135;48.362;10.878;2023-05-29T02:40:52;5.23;;;3.37;;
18019;SDS011;9135;48.362;10.878;2023-05-29T02:43:21;2.73;;;2.53;;
18019;SDS011;9135;48.362;10.878;2023-05-29T02:45:47;6.73;;;2.67;;
18019;SDS011;9135;48.362;10.878;2023-05-29T02:48:13;5.27;;;2.70;;
18019;SDS011;9135;48.362;10.878;2023-05-29T02:50:39;3.08;;;2.55;;
18019;SDS011;9135;48.362;10.878;2023-05-29T02:53:05;4.15;;;3.03;;
18019;SDS011;9135;48.362;10.878;2023-05-29T02:55:31;3.80;;;3.43;;
18019;SDS011;9135;48.362;10.878;2023-05-29T02:58:00;6.40;;;3.03;;
18019;SDS011;9135;48.362;10.878;2023-05-29T03:00:27;2.90;;;1.80;;
18019;SDS011;9135;48.362;10.878;2023-05-29T03:02:53;4.47;;;2.37;;
18019;SDS011;9135;48.362;10.878;2023-05-29T03:05:20;3.97;;;2.47;;
18019;SDS011;9135;48.362;10.878;2023-05-29T03:07:46;3.73;;;2.93;;
18019;SDS011;9135;48.362;10.878;2023-05-29T03:10:12;1.67;;;1.57;;
18019;SDS011;9135;48.362;10.878;2023-05-29T03:12:42;3.97;;;2.67;;
18019;SDS011;9135;48.362;10.878;2023-05-29T03:15:09;3.73;;;2.03;;
18019;SDS011;9135;48.362;10.878;2023-05-29T03:17:35;2.03;;;1.93;;
18019;SDS011;9135;48.362;10.878;2023-05-29T03:20:03;3.03;;;2.80;;
18019;SDS011;9135;48.362;10.878;2023-05-29T03:22:35;6.53;;;3.00;;
18019;SDS011;9135;48.362;10.878;2023-05-29T03:25:02;3.03;;;2.50;;
18019;SDS011;9135;48.362;10.878;2023-05-29T03:27:29;1.70;;;1.60;;
18019;SDS011;9135;48.362;10.878;2023-05-29T03:29:55;2.77;;;2.07;;
18019;SDS011;9135;48.362;10.878;2023-05-29T03:32:22;3.07;;;2.87;;
18019;SDS011;9135;48.362;10.878;2023-05-29T03:34:48;5.50;;;3.07;;
18019;SDS011;9135;48.362;10.878;2023-05-29T03:37:15;4.70;;;2.33;;
18019;SDS011;9135;48.362;10.878;2023-05-29T03:39:41;2.10;;;1.57;;
18019;SDS011;9135;48.362;10.878;2023-05-29T03:42:07;2.17;;;2.07;;
18019;SDS011;9135;48.362;10.878;2023-05-29T03:44:33;2.47;;;2.27;;
18019;SDS011;9135;48.362;10.878;2023-05-29T03:46:59;1.93;;;1.83;;
18019;SDS011;9135;48.362;10.878;2023-05-29T03:49:25;2.00;;;1.90;;
18019;SDS011;9135;48.362;10.878;2023-05-29T03:51:51;5.03;;;2.10;;
18019;SDS011;9135;48.362;10.878;2023-05-29T03:54:17;3.00;;;2.70;;
18019;SDS011;9135;48.362;10.878;2023-05-29T03:56:43;1.87;;;1.80;;
18019;SDS011;9135;48.362;10.878;2023-05-29T03:59:10;2.33;;;2.20;;
18019;SDS011;9135;48.362;10.878;2023-05-29T04:01:36;3.00;;;2.73;;
18019;SDS011;9135;48.362;10.878;2023-05-29T04:04:02;3.67;;;2.70;;
18019;SDS011;9135;48.362;10.878;2023-05-29T04:06:28;2.10;;;1.80;;
18019;SDS011;9135;48.362;10.878;2023-05-29T04:08:54;2.83;;;2.03;;
18019;SDS011;9135;48.362;10.878;2023-05-29T04:11:20;2.40;;;2.17;;
18019;SDS011;9135;48.362;10.878;2023-05-29T04:13:47;4.73;;;3.23;;
18019;SDS011;9135;48.362;10.878;2023-05-29T04:16:14;3.03;;;2.37;;
18019;SDS011;9135;48.362;10.878;2023-05-29T04:18:40;2.53;;;2.33;;
18019;SDS011;9135;48.362;10.878;2023-05-29T04:21:06;5.10;;;2.50;;
18019;SDS011;9135;48.362;10.878;2023-05-29T04:23:32;4.67;;;2.47;;
18019;SDS011;9135;48.362;10.878;2023-05-29T04:25:58;2.83;;;2.30;;
18019;SDS011;9135;48.362;10.878;2023-05-29T04:28:26;2.13;;;1.80;;
18019;SDS011;9135;48.362;10.878;2023-05-29T04:30:53;5.87;;;2.77;;
18019;SDS011;9135;48.362;10.878;2023-05-29T04:33:21;2.03;;;1.93;;
18019;SDS011;9135;48.362;10.878;2023-05-29T04:35:48;3.58;;;2.05;;
18019;SDS011;9135;48.362;10.878;2023-05-29T04:38:14;3.17;;;2.05;;
18019;SDS011;9135;48.362;10.878;2023-05-29T04:40:41;2.17;;;1.92;;
18019;SDS011;9135;48.362;10.878;2023-05-29T04:43:08;5.55;;;2.15;;
18019;SDS011;9135;48.362;10.878;2023-05-29T04:45:34;9.95;;;3.22;;
18019;SDS011;9135;48.362;10.878;2023-05-29T04:48:02;1.40;;;1.40;;
18019;SDS011;9135;48.362;10.878;2023-05-29T04:50:28;4.00;;;2.30;;
18019;SDS011;9135;48.362;10.878;2023-05-29T04:52:56;2.33;;;2.17;;
18019;SDS011;9135;48.362;10.878;2023-05-29T04:55:22;3.53;;;1.90;;
18019;SDS011;9135;48.362;10.878;2023-05-29T04:57:48;2.30;;;2.13;;
18019;SDS011;9135;48.362;10.878;2023-05-29T05:00:15;2.90;;;2.53;;
18019;SDS011;9135;48.362;10.878;2023-05-29T05:02:43;2.78;;;1.70;;
18019;SDS011;9135;48.362;10.878;2023-05-29T05:05:09;2.53;;;2.33;;
18019;SDS011;9135;48.362;10.878;2023-05-29T05:07:36;1.90;;;1.60;;
18019;SDS011;9135;48.362;10.878;2023-05-29T05:10:02;2.30;;;1.85;;
18019;SDS011;9135;48.362;10.878;2023-05-29T05:12:29;1.95;;;1.83;;
18019;SDS011;9135;48.362;10.878;2023-05-29T05:14:55;5.05;;;1.98;;
18019;SDS011;9135;48.362;10.878;2023-05-29T05:17:21;1.98;;;1.88;;
18019;SDS011;9135;48.362;10.878;2023-05-29T05:19:47;2.10;;;1.33;;
18019;SDS011;9135;48.362;10.878;2023-05-29T05:22:18;1.70;;;1.60;;
18019;SDS011;9135;48.362;10.878;2023-05-29T05:24:44;5.07;;;2.15;;
18019;SDS011;9135;48.362;10.878;2023-05-29T05:27:10;1.80;;;1.70;;
18019;SDS011;9135;48.362;10.878;2023-05-29T05:29:36;2.42;;;2.15;;
18019;SDS011;9135;48.362;10.878;2023-05-29T05:32:02;1.20;;;1.20;;
18019;SDS011;9135;48.362;10.878;2023-05-29T05:34:28;2.88;;;2.00;;
18019;SDS011;9135;48.362;10.878;2023-05-29T05:36:54;2.97;;;2.08;;
18019;SDS011;9135;48.362;10.878;2023-05-29T05:39:20;2.55;;;2.10;;
18019;SDS011;9135;48.362;10.878;2023-05-29T05:41:47;2.42;;;2.10;;
18019;SDS011;9135;48.362;10.878;2023-05-29T05:44:13;4.15;;;2.22;;
18019;SDS011;9135;48.362;10.878;2023-05-29T05:46:39;2.35;;;1.85;;
18019;SDS011;9135;48.362;10.878;2023-05-29T05:49:05;3.00;;;2.17;;
18019;SDS011;9135;48.362;10.878;2023-05-29T05:51:31;2.15;;;1.95;;
18019;SDS011;9135;48.362;10.878;2023-05-29T05:53:57;2.58;;;1.80;;
18019;SDS011;9135;48.362;10.878;2023-05-29T05:56:23;3.35;;;2.90;;
18019;SDS011;9135;48.362;10.878;2023-05-29T05:58:51;1.38;;;1.33;;
18019;SDS011;9135;48.362;10.878;2023-05-29T06:01:17;3.25;;;1.77;;
18019;SDS011;9135;48.362;10.878;2023-05-29T06:03:43;2.45;;;2.10;;
18019;SDS011;9135;48.362;10.878;2023-05-29T06:06:09;6.25;;;1.80;;
18019;SDS011;9135;48.362;10.878;2023-05-29T06:08:35;3.97;;;1.50;;
18019;SDS011;9135;48.362;10.878;2023-05-29T06:11:02;4.47;;;2.03;;
18019;SDS011;9135;48.362;10.878;2023-05-29T06:13:28;3.47;;;2.05;;
18019;SDS011;9135;48.362;10.878;2023-05-29T06:15:54;1.85;;;1.33;;
18019;SDS011;9135;48.362;10.878;2023-05-29T06:18:20;3.50;;;2.47;;
18019;SDS011;9135;48.362;10.878;2023-05-29T06:20:47;3.95;;;1.92;;
18019;SDS011;9135;48.362;10.878;2023-05-29T06:23:13;4.00;;;2.13;;
18019;SDS011;9135;48.362;10.878;2023-05-29T06:25:39;4.20;;;2.28;;
18019;SDS011;9135;48.362;10.878;2023-05-29T06:28:05;2.47;;;2.25;;
18019;SDS011;9135;48.362;10.878;2023-05-29T06:30:31;1.92;;;1.83;;
18019;SDS011;9135;48.362;10.878;2023-05-29T06:32:57;3.70;;;2.28;;
18019;SDS011;9135;48.362;10.878;2023-05-29T06:35:23;1.92;;;1.77;;
18019;SDS011;9135;48.362;10.878;2023-05-29T06:37:49;2.35;;;1.95;;
18019;SDS011;9135;48.362;10.878;2023-05-29T06:40:15;7.88;;;2.33;;
18019;SDS011;9135;48.362;10.878;2023-05-29T06:42:41;3.35;;;2.17;;
18019;SDS011;9135;48.362;10.878;2023-05-29T06:45:11;1.70;;;1.60;;
18019;SDS011;9135;48.362;10.878;2023-05-29T06:47:41;3.67;;;2.03;;
18019;SDS011;9135;48.362;10.878;2023-05-29T06:50:07;5.75;;;3.20;;
18019;SDS011;9135;48.362;10.878;2023-05-29T06:52:34;2.65;;;1.65;;
18019;SDS011;9135;48.362;10.878;2023-05-29T06:55:00;1.88;;;1.58;;
18019;SDS011;9135;48.362;10.878;2023-05-29T06:57:26;3.75;;;1.77;;
18019;SDS011;9135;48.362;10.878;2023-05-29T06:59:52;3.40;;;1.17;;
18019;SDS011;9135;48.362;10.878;2023-05-29T07:02:18;1.80;;;1.50;;
18019;SDS011;9135;48.362;10.878;2023-05-29T07:04:44;2.92;;;1.60;;
18019;SDS011;9135;48.362;10.878;2023-05-29T07:07:11;2.20;;;1.70;;
18019;SDS011;9135;48.362;10.878;2023-05-29T07:09:37;2.90;;;2.08;;
18019;SDS011;9135;48.362;10.878;2023-05-29T07:12:04;2.10;;;1.58;;
18019;SDS011;9135;48.362;10.878;2023-05-29T07:14:30;5.28;;;2.33;;
18019;SDS011;9135;48.362;10.878;2023-05-29T07:16:56;2.85;;;1.50;;
18019;SDS011;9135;48.362;10.878;2023-05-29T07:19:22;1.50;;;1.40;;
18019;SDS011;9135;48.362;10.878;2023-05-29T07:21:48;2.05;;;1.67;;
18019;SDS011;9135;48.362;10.878;2023-05-29T07:24:14;1.85;;;1.48;;
18019;SDS011;9135;48.362;10.878;2023-05-29T07:26:40;3.35;;;2.08;;
18019;SDS011;9135;48.362;10.878;2023-05-29T07:29:07;2.97;;;1.95;;
18019;SDS011;9135;48.362;10.878;2023-05-29T07:31:33;4.40;;;2.45;;
18019;SDS011;9135;48.362;10.878;2023-05-29T07:33:59;2.33;;;2.13;;
18019;SDS011;9135;48.362;10.878;2023-05-29T07:36:28;2.60;;;1.50;;
18019;SDS011;9135;48.362;10.878;2023-05-29T07:38:56;4.65;;;2.30;;
18019;SDS011;9135;48.362;10.878;2023-05-29T07:41:23;1.80;;;1.70;;
18019;SDS011;9135;48.362;10.878;2023-05-29T07:43:51;2.70;;;1.35;;
18019;SDS011;9135;48.362;10.878;2023-05-29T07:46:18;2.03;;;1.55;;
18019;SDS011;9135;48.362;10.878;2023-05-29T07:48:44;2.47;;;2.08;;
18019;SDS011;9135;48.362;10.878;2023-05-29T07:51:13;2.53;;;2.00;;
18019;SDS011;9135;48.362;10.878;2023-05-29T07:53:39;2.38;;;1.70;;
18019;SDS011;9135;48.362;10.878;2023-05-29T07:56:05;2.13;;;1.85;;
18019;SDS011;9135;48.362;10.878;2023-05-29T07:58:31;4.00;;;1.73;;
18019;SDS011;9135;48.362;10.878;2023-05-29T08:00:58;1.55;;;1.35;;
18019;SDS011;9135;48.362;10.878;2023-05-29T08:03:24;2.08;;;1.50;;
18019;SDS011;9135;48.362;10.878;2023-05-29T08:05:50;3.05;;;1.90;;
18019;SDS011;9135;48.362;10.878;2023-05-29T08:08:17;1.38;;;1.30;;
18019;SDS011;9135;48.362;10.878;2023-05-29T08:10:43;2.60;;;1.42;;
18019;SDS011;9135;48.362;10.878;2023-05-29T08:13:10;2.40;;;1.65;;
18019;SDS011;9135;48.362;10.878;2023-05-29T08:15:36;1.95;;;1.67;;
18019;SDS011;9135;48.362;10.878;2023-05-29T08:18:02;3.05;;;2.35;;
18019;SDS011;9135;48.362;10.878;2023-05-29T08:20:28;4.75;;;2.35;;
18019;SDS011;9135;48.362;10.878;2023-05-29T08:22:54;2.38;;;1.58;;
18019;SDS011;9135;48.362;10.878;2023-05-29T08:25:20;1.80;;;1.38;;
18019;SDS011;9135;48.362;10.878;2023-05-29T08:27:46;3.38;;;1.60;;
18019;SDS011;9135;48.362;10.878;2023-05-29T08:30:12;1.30;;;1.15;;
18019;SDS011;9135;48.362;10.878;2023-05-29T08:32:38;3.78;;;2.38;;
18019;SDS011;9135;48.362;10.878;2023-05-29T08:35:04;3.33;;;1.90;;
18019;SDS011;9135;48.362;10.878;2023-05-29T08:37:30;2.40;;;1.52;;
18019;SDS011;9135;48.362;10.878;2023-05-29T08:39:56;1.83;;;1.73;;
18019;SDS011;9135;48.362;10.878;2023-05-29T08:42:29;3.05;;;2.75;;
18019;SDS011;9135;48.362;10.878;2023-05-29T08:44:58;2.75;;;1.48;;
18019;SDS011;9135;48.362;10.878;2023-05-29T08:47:27;1.52;;;1.42;;
18019;SDS011;9135;48.362;10.878;2023-05-29T08:49:55;1.65;;;1.55;;
18019;SDS011;9135;48.362;10.878;2023-05-29T08:52:22;3.67;;;1.55;;
18019;SDS011;9135;48.362;10.878;2023-05-29T08:54:54;3.90;;;1.83;;
18019;SDS011;9135;48.362;10.878;2023-05-29T08:57:22;1.42;;;1.33;;
18019;SDS011;9135;48.362;10.878;2023-05-29T08:59:50;5.35;;;1.42;;
18019;SDS011;9135;48.362;10.878;2023-05-29T09:02:17;2.55;;;1.85;;
18019;SDS011;9135;48.362;10.878;2023-05-29T09:04:44;3.50;;;1.50;;
18019;SDS011;9135;48.362;10.878;2023-05-29T09:07:13;2.40;;;1.70;;
18019;SDS011;9135;48.362;10.878;2023-05-29T09:09:39;4.53;;;1.90;;
18019;SDS011;9135;48.362;10.878;2023-05-29T09:12:06;2.97;;;1.60;;
18019;SDS011;9135;48.362;10.878;2023-05-29T09:17:01;2.25;;;1.80;;
18019;SDS011;9135;48.362;10.878;2023-05-29T09:19:28;4.38;;;2.17;;
18019;SDS011;9135;48.362;10.878;2023-05-29T09:22:05;3.80;;;1.50;;
18019;SDS011;9135;48.362;10.878;2023-05-29T09:24:32;2.92;;;1.55;;
18019;SDS011;9135;48.362;10.878;2023-05-29T09:26:59;2.92;;;1.65;;
18019;SDS011;9135;48.362;10.878;2023-05-29T09:29:25;4.35;;;2.15;;
18019;SDS011;9135;48.362;10.878;2023-05-29T09:31:52;2.00;;;1.85;;
18019;SDS011;9135;48.362;10.878;2023-05-29T09:34:18;2.53;;;2.30;;
18019;SDS011;9135;48.362;10.878;2023-05-29T09:36:44;1.95;;;1.67;;
18019;SDS011;9135;48.362;10.878;2023-05-29T09:39:10;3.35;;;1.88;;
18019;SDS011;9135;48.362;10.878;2023-05-29T09:41:43;2.63;;;1.60;;
18019;SDS011;9135;48.362;10.878;2023-05-29T09:44:13;2.28;;;2.03;;
18019;SDS011;9135;48.362;10.878;2023-05-29T09:46:42;2.55;;;1.88;;
18019;SDS011;9135;48.362;10.878;2023-05-29T09:49:11;2.42;;;1.77;;
18019;SDS011;9135;48.362;10.878;2023-05-29T09:51:38;3.92;;;1.70;;
18019;SDS011;9135;48.362;10.878;2023-05-29T09:54:16;2.45;;;1.55;;
18019;SDS011;9135;48.362;10.878;2023-05-29T09:56:43;3.15;;;1.88;;
18019;SDS011;9135;48.362;10.878;2023-05-29T09:59:11;4.78;;;1.83;;
18019;SDS011;9135;48.362;10.878;2023-05-29T10:01:38;4.45;;;2.03;;
18019;SDS011;9135;48.362;10.878;2023-05-29T10:04:06;3.72;;;1.65;;
18019;SDS011;9135;48.362;10.878;2023-05-29T10:06:32;1.30;;;1.20;;
18019;SDS011;9135;48.362;10.878;2023-05-29T10:09:01;4.30;;;1.52;;
18019;SDS011;9135;48.362;10.878;2023-05-29T10:11:28;2.40;;;1.30;;
18019;SDS011;9135;48.362;10.878;2023-05-29T10:13:56;4.30;;;1.83;;
18019;SDS011;9135;48.362;10.878;2023-05-29T10:16:22;2.90;;;1.58;;
18019;SDS011;9135;48.362;10.878;2023-05-29T10:18:50;4.10;;;1.48;;
18019;SDS011;9135;48.362;10.878;2023-05-29T10:21:19;2.17;;;1.95;;
18019;SDS011;9135;48.362;10.878;2023-05-29T10:23:50;1.83;;;1.42;;
18019;SDS011;9135;48.362;10.878;2023-05-29T10:26:20;1.65;;;1.55;;
18019;SDS011;9135;48.362;10.878;2023-05-29T10:28:55;2.00;;;1.42;;
18019;SDS011;9135;48.362;10.878;2023-05-29T10:31:30;2.17;;;1.10;;
18019;SDS011;9135;48.362;10.878;2023-05-29T10:36:43;1.63;;;1.50;;
18019;SDS011;9135;48.362;10.878;2023-05-29T10:39:10;1.52;;;1.38;;
18019;SDS011;9135;48.362;10.878;2023-05-29T10:41:37;2.67;;;1.65;;
18019;SDS011;9135;48.362;10.878;2023-05-29T10:44:37;2.25;;;1.75;;
18019;SDS011;9135;48.362;10.878;2023-05-29T10:49:20;2.38;;;1.50;;
18019;SDS011;9135;48.362;10.878;2023-05-29T10:51:47;1.77;;;1.60;;
18019;SDS011;9135;48.362;10.878;2023-05-29T10:54:14;3.65;;;1.77;;
18019;SDS011;9135;48.362;10.878;2023-05-29T10:56:41;4.63;;;1.77;;
18019;SDS011;9135;48.362;10.878;2023-05-29T10:59:10;2.70;;;2.15;;
18019;SDS011;9135;48.362;10.878;2023-05-29T11:01:38;2.30;;;1.63;;
18019;SDS011;9135;48.362;10.878;2023-05-29T11:06:43;4.00;;;1.58;;
18019;SDS011;9135;48.362;10.878;2023-05-29T11:14:45;2.15;;;1.45;;
18019;SDS011;9135;48.362;10.878;2023-05-29T11:19:57;2.28;;;1.25;;
18019;SDS011;9135;48.362;10.878;2023-05-29T11:22:26;1.60;;;1.30;;
18019;SDS011;9135;48.362;10.878;2023-05-29T11:24:53;1.75;;;1.27;;
18019;SDS011;9135;48.362;10.878;2023-05-29T11:27:21;2.25;;;1.75;;
18019;SDS011;9135;48.362;10.878;2023-05-29T11:29:48;1.83;;;1.20;;
18019;SDS011;9135;48.362;10.878;2023-05-29T11:32:14;3.17;;;1.95;;
18019;SDS011;9135;48.362;10.878;2023-05-29T11:34:42;2.22;;;1.73;;
18019;SDS011;9135;48.362;10.878;2023-05-29T11:37:11;1.30;;;1.20;;
18019;SDS011;9135;48.362;10.878;2023-05-29T11:39:37;2.95;;;1.48;;
18019;SDS011;9135;48.362;10.878;2023-05-29T11:42:03;1.48;;;1.27;;
18019;SDS011;9135;48.362;10.878;2023-05-29T11:44:30;1.73;;;1.40;;
18019;SDS011;9135;48.362;10.878;2023-05-29T11:47:14;1.52;;;1.42;;
18019;SDS011;9135;48.362;10.878;2023-05-29T11:49:40;1.52;;;1.45;;
18019;SDS011;9135;48.362;10.878;2023-05-29T11:52:10;3.08;;;1.45;;
18019;SDS011;9135;48.362;10.878;2023-05-29T11:54:36;3.33;;;2.30;;
18019;SDS011;9135;48.362;10.878;2023-05-29T11:57:02;2.60;;;2.13;;
18019;SDS011;9135;48.362;10.878;2023-05-29T11:59:31;2.30;;;1.50;;
18019;SDS011;9135;48.362;10.878;2023-05-29T12:01:58;2.58;;;1.67;;
18019;SDS011;9135;48.362;10.878;2023-05-29T12:04:24;1.80;;;1.50;;
18019;SDS011;9135;48.362;10.878;2023-05-29T12:06:50;1.35;;;1.25;;
18019;SDS011;9135;48.362;10.878;2023-05-29T12:09:26;1.98;;;1.63;;
18019;SDS011;9135;48.362;10.878;2023-05-29T12:11:53;2.15;;;1.33;;
18019;SDS011;9135;48.362;10.878;2023-05-29T12:14:19;1.92;;;1.65;;
18019;SDS011;9135;48.362;10.878;2023-05-29T12:16:45;1.65;;;1.52;;
18019;SDS011;9135;48.362;10.878;2023-05-29T12:19:12;2.05;;;1.70;;
18019;SDS011;9135;48.362;10.878;2023-05-29T12:21:41;1.77;;;1.40;;
18019;SDS011;9135;48.362;10.878;2023-05-29T12:24:10;1.50;;;1.40;;
18019;SDS011;9135;48.362;10.878;2023-05-29T12:26:36;1.77;;;1.67;;
18019;SDS011;9135;48.362;10.878;2023-05-29T12:29:05;1.40;;;1.15;;
18019;SDS011;9135;48.362;10.878;2023-05-29T12:31:31;2.35;;;1.38;;
18019;SDS011;9135;48.362;10.878;2023-05-29T12:34:02;1.90;;;1.48;;
18019;SDS011;9135;48.362;10.878;2023-05-29T12:36:28;1.50;;;1.40;;
18019;SDS011;9135;48.362;10.878;2023-05-29T12:38:55;2.00;;;1.50;;
18019;SDS011;9135;48.362;10.878;2023-05-29T12:41:35;2.05;;;1.60;;
18019;SDS011;9135;48.362;10.878;2023-05-29T12:44:02;3.30;;;1.30;;
18019;SDS011;9135;48.362;10.878;2023-05-29T12:46:34;1.52;;;1.42;;
18019;SDS011;9135;48.362;10.878;2023-05-29T12:49:10;4.28;;;2.47;;
18019;SDS011;9135;48.362;10.878;2023-05-29T12:51:39;2.00;;;1.67;;
18019;SDS011;9135;48.362;10.878;2023-05-29T12:54:06;2.53;;;2.20;;
18019;SDS011;9135;48.362;10.878;2023-05-29T12:56:32;2.45;;;1.38;;
18019;SDS011;9135;48.362;10.878;2023-05-29T12:58:58;3.03;;;1.63;;
18019;SDS011;9135;48.362;10.878;2023-05-29T13:01:24;2.53;;;1.48;;
18019;SDS011;9135;48.362;10.878;2023-05-29T13:03:50;5.88;;;1.63;;
18019;SDS011;9135;48.362;10.878;2023-05-29T13:06:16;1.40;;;1.13;;
18019;SDS011;9135;48.362;10.878;2023-05-29T13:08:42;2.08;;;1.88;;
18019;SDS011;9135;48.362;10.878;2023-05-29T13:11:09;1.65;;;1.42;;
18019;SDS011;9135;48.362;10.878;2023-05-29T13:13:35;3.40;;;2.10;;
18019;SDS011;9135;48.362;10.878;2023-05-29T13:16:01;1.40;;;1.30;;
18019;SDS011;9135;48.362;10.878;2023-05-29T13:18:27;1.70;;;1.60;;
18019;SDS011;9135;48.362;10.878;2023-05-29T13:20:53;2.38;;;1.38;;
18019;SDS011;9135;48.362;10.878;2023-05-29T13:23:19;1.52;;;1.40;;
18019;SDS011;9135;48.362;10.878;2023-05-29T13:25:46;1.50;;;1.40;;
18019;SDS011;9135;48.362;10.878;2023-05-29T13:28:14;1.38;;;1.27;;
18019;SDS011;9135;48.362;10.878;2023-05-29T13:30:40;1.48;;;1.27;;
18019;SDS011;9135;48.362;10.878;2023-05-29T13:33:06;2.45;;;1.38;;
18019;SDS011;9135;48.362;10.878;2023-05-29T13:35:32;1.23;;;1.13;;
18019;SDS011;9135;48.362;10.878;2023-05-29T13:37:58;1.67;;;1.58;;
18019;SDS011;9135;48.362;10.878;2023-05-29T13:40:25;2.15;;;1.73;;
18019;SDS011;9135;48.362;10.878;2023-05-29T13:42:51;1.58;;;1.23;;
18019;SDS011;9135;48.362;10.878;2023-05-29T13:45:17;1.50;;;1.30;;
18019;SDS011;9135;48.362;10.878;2023-05-29T13:47:43;2.08;;;1.70;;
18019;SDS011;9135;48.362;10.878;2023-05-29T13:50:09;1.50;;;1.40;;
18019;SDS011;9135;48.362;10.878;2023-05-29T13:52:35;1.88;;;1.67;;
18019;SDS011;9135;48.362;10.878;2023-05-29T13:55:01;2.70;;;1.40;;
18019;SDS011;9135;48.362;10.878;2023-05-29T13:57:33;2.67;;;1.35;;
18019;SDS011;9135;48.362;10.878;2023-05-29T13:59:59;2.67;;;1.33;;
18019;SDS011;9135;48.362;10.878;2023-05-29T14:02:25;1.52;;;1.27;;
18019;SDS011;9135;48.362;10.878;2023-05-29T14:04:51;2.55;;;1.70;;
18019;SDS011;9135;48.362;10.878;2023-05-29T14:07:17;3.58;;;1.30;;
18019;SDS011;9135;48.362;10.878;2023-05-29T14:09:43;1.60;;;1.50;;
18019;SDS011;9135;48.362;10.878;2023-05-29T14:12:09;1.80;;;1.23;;
18019;SDS011;9135;48.362;10.878;2023-05-29T14:14:35;1.92;;;1.20;;
18019;SDS011;9135;48.362;10.878;2023-05-29T14:17:02;3.03;;;1.33;;
18019;SDS011;9135;48.362;10.878;2023-05-29T14:19:29;1.58;;;1.17;;
18019;SDS011;9135;48.362;10.878;2023-05-29T14:21:56;1.13;;;1.13;;
18019;SDS011;9135;48.362;10.878;2023-05-29T14:24:22;2.38;;;2.03;;
18019;SDS011;9135;48.362;10.878;2023-05-29T14:26:49;2.80;;;1.75;;
18019;SDS011;9135;48.362;10.878;2023-05-29T14:29:15;3.67;;;2.08;;
18019;SDS011;9135;48.362;10.878;2023-05-29T14:31:42;1.38;;;1.27;;
18019;SDS011;9135;48.362;10.878;2023-05-29T14:34:08;2.28;;;1.65;;
18019;SDS011;9135;48.362;10.878;2023-05-29T14:36:34;1.40;;;1.15;;
18019;SDS011;9135;48.362;10.878;2023-05-29T14:39:02;1.10;;;1.10;;
18019;SDS011;9135;48.362;10.878;2023-05-29T14:41:28;1.80;;;1.70;;
18019;SDS011;9135;48.362;10.878;2023-05-29T14:43:54;1.73;;;1.63;;
18019;SDS011;9135;48.362;10.878;2023-05-29T14:46:23;2.80;;;1.55;;
18019;SDS011;9135;48.362;10.878;2023-05-29T14:48:50;2.83;;;1.83;;
18019;SDS011;9135;48.362;10.878;2023-05-29T14:51:16;1.95;;;1.70;;
18019;SDS011;9135;48.362;10.878;2023-05-29T14:53:43;4.45;;;2.33;;
18019;SDS011;9135;48.362;10.878;2023-05-29T14:56:10;2.13;;;1.40;;
18019;SDS011;9135;48.362;10.878;2023-05-29T14:58:36;2.42;;;1.63;;
18019;SDS011;9135;48.362;10.878;2023-05-29T15:01:02;2.65;;;1.77;;
18019;SDS011;9135;48.362;10.878;2023-05-29T15:03:28;2.25;;;1.33;;
18019;SDS011;9135;48.362;10.878;2023-05-29T15:05:54;1.30;;;1.20;;
18019;SDS011;9135;48.362;10.878;2023-05-29T15:08:20;1.40;;;1.30;;
18019;SDS011;9135;48.362;10.878;2023-05-29T15:10:47;4.18;;;1.80;;
18019;SDS011;9135;48.362;10.878;2023-05-29T15:13:13;1.20;;;1.00;;
18019;SDS011;9135;48.362;10.878;2023-05-29T15:15:39;5.13;;;1.52;;